createdAt,value
2018-06-14T00:01:13.338Z,98005.00
2018-06-14T00:03:54.636Z,98002.00
2018-06-14T00:06:35.095Z,98011.00
2018-06-14T00:09:31.435Z,98010.00
2018-06-14T00:12:12.454Z,98015.00
2018-06-14T00:14:52.413Z,98013.00
2018-06-14T00:17:34.679Z,98013.00
2018-06-14T00:20:13.912Z,98005.00
2018-06-14T00:22:53.273Z,98007.00
2018-06-14T00:25:32.651Z,98014.00
2018-06-14T00:28:09.757Z,98013.00
2018-06-14T00:30:46.674Z,98013.00
2018-06-14T00:33:27.253Z,98012.00
2018-06-14T00:36:07.311Z,98013.00
2018-06-14T00:38:49.412Z,98008.00
2018-06-14T00:41:35.535Z,98016.00
2018-06-14T00:44:14.073Z,98018.00
2018-06-14T00:46:54.114Z,98016.00
2018-06-14T00:49:33.195Z,98020.00
2018-06-14T00:52:13.977Z,98019.00
2018-06-14T00:54:53.857Z,98019.00
2018-06-14T00:57:35.077Z,98015.00
2018-06-14T01:00:15.353Z,98022.00
2018-06-14T01:02:55.092Z,98018.00
2018-06-14T22:31:42.301Z,98024.00
2018-06-14T22:34:33.920Z,98028.00
2018-06-14T22:37:19.545Z,98025.00
2018-06-14T22:39:59.083Z,98024.00
2018-06-14T22:42:39.324Z,98032.00
2018-06-14T22:48:01.479Z,98033.00
2018-06-14T22:56:38.998Z,98028.00
2018-06-14T22:59:19.517Z,98028.00
2018-06-14T23:01:59.595Z,98027.00
2018-06-14T23:04:48.585Z,98029.00
2018-06-14T23:07:30.795Z,98031.00
2018-06-14T23:10:33.544Z,98033.00
2018-06-14T23:13:12.824Z,98032.00
2018-06-14T23:15:52.460Z,98038.00
2018-06-14T23:18:31.427Z,98036.00
2018-06-14T23:21:11.705Z,98036.00
2018-06-14T23:23:50.938Z,98039.00
2018-06-14T23:26:28.076Z,98036.00
2018-06-14T23:29:09.580Z,98037.00
2018-06-14T23:31:55.000Z,98039.00
2018-06-14T23:34:31.743Z,98039.00
2018-06-14T23:37:09.759Z,98038.00
2018-06-14T23:39:51.475Z,98034.00
2018-06-14T23:42:29.459Z,98037.00
2018-06-14T23:45:11.380Z,98032.00
2018-06-14T23:47:58.903Z,98028.00
